sensor_id;sensor_type;location;lat;lon;timestamp;temperature;humidity
6407;DHT22;3236;51.022;6.818;2023-05-09T00:00:46;15.80;99.90
6407;DHT22;3236;51.022;6.818;2023-05-09T00:03:13;15.80;99.90
6407;DHT22;3236;51.022;6.818;2023-05-09T00:05:44;15.80;99.90
6407;DHT22;3236;51.022;6.818;2023-05-09T00:08:11;15.80;99.90
6407;DHT22;3236;51.022;6.818;2023-05-09T00:10:38;15.80;99.90
6407;DHT22;3236;51.022;6.818;2023-05-09T00:13:06;15.60;99.90
6407;DHT22;3236;51.022;6.818;2023-05-09T00:15:33;15.70;99.90
6407;DHT22;3236;51.022;6.818;2023-05-09T00:18:02;15.80;99.90
6407;DHT22;3236;51.022;6.818;2023-05-09T00:20:29;15.70;99.90
6407;DHT22;3236;51.022;6.818;2023-05-09T00:22:58;15.80;99.90
6407;DHT22;3236;51.022;6.818;2023-05-09T00:25:25;15.80;99.90
6407;DHT22;3236;51.022;6.818;2023-05-09T00:27:52;15.70;99.90
6407;DHT22;3236;51.022;6.818;2023-05-09T00:30:20;15.60;99.90
6407;DHT22;3236;51.022;6.818;2023-05-09T00:32:47;16.20;99.90
6407;DHT22;3236;51.022;6.818;2023-05-09T00:35:15;15.60;99.90
6407;DHT22;3236;51.022;6.818;2023-05-09T00:37:42;15.60;99.90
6407;DHT22;3236;51.022;6.818;2023-05-09T00:40:12;15.70;99.90
6407;DHT22;3236;51.022;6.818;2023-05-09T00:42:40;15.70;99.90
6407;DHT22;3236;51.022;6.818;2023-05-09T00:45:10;15.70;99.90
6407;DHT22;3236;51.022;6.818;2023-05-09T00:47:37;15.70;99.90
6407;DHT22;3236;51.022;6.818;2023-05-09T01:02:48;15.80;99.90
6407;DHT22;3236;51.022;6.818;2023-05-09T01:07:51;15.60;99.90
6407;DHT22;3236;51.022;6.818;2023-05-09T01:10:24;15.70;99.90
6407;DHT22;3236;51.022;6.818;2023-05-09T01:13:02;15.70;99.90
6407;DHT22;3236;51.022;6.818;2023-05-09T01:15:34;15.70;99.90
6407;DHT22;3236;51.022;6.818;2023-05-09T01:18:07;15.60;99.90
6407;DHT22;3236;51.022;6.818;2023-05-09T01:20:43;15.60;99.90
6407;DHT22;3236;51.022;6.818;2023-05-09T01:26:12;15.70;99.90
6407;DHT22;3236;51.022;6.818;2023-05-09T01:31:43;15.70;99.90
6407;DHT22;3236;51.022;6.818;2023-05-09T01:34:16;15.70;99.90
6407;DHT22;3236;51.022;6.818;2023-05-09T01:36:45;15.70;99.90
6407;DHT22;3236;51.022;6.818;2023-05-09T01:39:22;15.70;99.90
6407;DHT22;3236;51.022;6.818;2023-05-09T01:41:52;15.80;99.90
6407;DHT22;3236;51.022;6.818;2023-05-09T01:44:21;15.80;99.90
6407;DHT22;3236;51.022;6.818;2023-05-09T01:46:54;15.70;99.90
6407;DHT22;3236;51.022;6.818;2023-05-09T01:49:21;15.70;99.90
6407;DHT22;3236;51.022;6.818;2023-05-09T01:51:53;15.60;99.90
6407;DHT22;3236;51.022;6.818;2023-05-09T01:54:21;15.60;99.90
6407;DHT22;3236;51.022;6.818;2023-05-09T01:56:54;15.60;99.90
6407;DHT22;3236;51.022;6.818;2023-05-09T01:59:22;15.70;99.90
6407;DHT22;3236;51.022;6.818;2023-05-09T02:01:52;15.70;99.90
6407;DHT22;3236;51.022;6.818;2023-05-09T02:04:21;15.80;99.90
6407;DHT22;3236;51.022;6.818;2023-05-09T02:06:49;15.70;99.90
6407;DHT22;3236;51.022;6.818;2023-05-09T02:09:17;15.70;99.90
6407;DHT22;3236;51.022;6.818;2023-05-09T02:11:45;15.70;99.90
6407;DHT22;3236;51.022;6.818;2023-05-09T02:19:12;15.80;99.90
6407;DHT22;3236;51.022;6.818;2023-05-09T02:21:43;15.70;99.90
6407;DHT22;3236;51.022;6.818;2023-05-09T02:24:11;15.80;99.90
6407;DHT22;3236;51.022;6.818;2023-05-09T02:26:42;15.80;99.90
6407;DHT22;3236;51.022;6.818;2023-05-09T02:29:20;15.80;99.90
6407;DHT22;3236;51.022;6.818;2023-05-09T02:31:50;15.70;99.90
6407;DHT22;3236;51.022;6.818;2023-05-09T02:34:19;15.70;99.90
6407;DHT22;3236;51.022;6.818;2023-05-09T02:36:46;15.80;99.90
6407;DHT22;3236;51.022;6.818;2023-05-09T02:39:20;15.80;99.90
6407;DHT22;3236;51.022;6.818;2023-05-09T02:41:47;15.80;99.90
6407;DHT22;3236;51.022;6.818;2023-05-09T02:44:17;15.80;99.90
6407;DHT22;3236;51.022;6.818;2023-05-09T02:46:44;15.70;99.90
6407;DHT22;3236;51.022;6.818;2023-05-09T02:49:11;15.70;99.90
6407;DHT22;3236;51.022;6.818;2023-05-09T02:51:43;15.70;99.90
6407;DHT22;3236;51.022;6.818;2023-05-09T02:54:10;15.70;99.90
6407;DHT22;3236;51.022;6.818;2023-05-09T02:56:37;15.70;99.90
6407;DHT22;3236;51.022;6.818;2023-05-09T02:59:04;15.70;99.90
6407;DHT22;3236;51.022;6.818;2023-05-09T03:01:31;15.60;99.90
6407;DHT22;3236;51.022;6.818;2023-05-09T03:03:59;15.70;99.90
6407;DHT22;3236;51.022;6.818;2023-05-09T03:06:26;15.60;99.90
6407;DHT22;3236;51.022;6.818;2023-05-09T03:08:54;15.60;99.90
6407;DHT22;3236;51.022;6.818;2023-05-09T03:11:21;16.00;99.90
6407;DHT22;3236;51.022;6.818;2023-05-09T03:13:48;15.60;99.90
6407;DHT22;3236;51.022;6.818;2023-05-09T03:16:17;15.50;99.90
6407;DHT22;3236;51.022;6.818;2023-05-09T03:18:44;15.60;99.90
6407;DHT22;3236;51.022;6.818;2023-05-09T03:21:11;15.60;99.90
6407;DHT22;3236;51.022;6.818;2023-05-09T03:23:38;15.50;99.90
6407;DHT22;3236;51.022;6.818;2023-05-09T03:26:07;15.40;99.90
6407;DHT22;3236;51.022;6.818;2023-05-09T03:28:34;15.50;99.90
6407;DHT22;3236;51.022;6.818;2023-05-09T03:31:13;15.40;99.90
6407;DHT22;3236;51.022;6.818;2023-05-09T03:33:41;15.40;99.90
6407;DHT22;3236;51.022;6.818;2023-05-09T03:36:09;15.40;99.90
6407;DHT22;3236;51.022;6.818;2023-05-09T03:38:36;15.40;99.90
6407;DHT22;3236;51.022;6.818;2023-05-09T03:41:03;15.40;99.90
6407;DHT22;3236;51.022;6.818;2023-05-09T03:43:32;15.40;99.90
6407;DHT22;3236;51.022;6.818;2023-05-09T03:45:59;15.30;99.90
6407;DHT22;3236;51.022;6.818;2023-05-09T03:48:27;15.40;99.90
6407;DHT22;3236;51.022;6.818;2023-05-09T03:53:22;15.30;99.90
6407;DHT22;3236;51.022;6.818;2023-05-09T03:55:49;15.30;99.90
6407;DHT22;3236;51.022;6.818;2023-05-09T03:58:17;15.30;99.90
6407;DHT22;3236;51.022;6.818;2023-05-09T04:00:47;15.30;99.90
6407;DHT22;3236;51.022;6.818;2023-05-09T04:03:14;15.30;99.90
6407;DHT22;3236;51.022;6.818;2023-05-09T04:05:41;15.10;99.90
6407;DHT22;3236;51.022;6.818;2023-05-09T04:10:38;15.20;99.90
6407;DHT22;3236;51.022;6.818;2023-05-09T04:13:05;15.40;99.90
6407;DHT22;3236;51.022;6.818;2023-05-09T04:15:32;15.20;99.90
6407;DHT22;3236;51.022;6.818;2023-05-09T04:18:01;15.10;99.90
6407;DHT22;3236;51.022;6.818;2023-05-09T04:20:28;15.10;99.90
6407;DHT22;3236;51.022;6.818;2023-05-09T04:22:55;15.10;99.90
6407;DHT22;3236;51.022;6.818;2023-05-09T04:25:23;15.10;99.90
6407;DHT22;3236;51.022;6.818;2023-05-09T04:27:50;15.10;99.90
6407;DHT22;3236;51.022;6.818;2023-05-09T04:30:17;15.10;99.90
6407;DHT22;3236;51.022;6.818;2023-05-09T04:32:47;15.10;99.90
6407;DHT22;3236;51.022;6.818;2023-05-09T04:35:17;15.00;99.90
6407;DHT22;3236;51.022;6.818;2023-05-09T04:37:44;15.30;99.90
6407;DHT22;3236;51.022;6.818;2023-05-09T04:40:11;15.00;99.90
6407;DHT22;3236;51.022;6.818;2023-05-09T04:42:39;14.90;99.90
6407;DHT22;3236;51.022;6.818;2023-05-09T04:45:07;14.70;99.90
6407;DHT22;3236;51.022;6.818;2023-05-09T04:47:36;15.00;99.90
6407;DHT22;3236;51.022;6.818;2023-05-09T04:50:03;15.00;99.90
6407;DHT22;3236;51.022;6.818;2023-05-09T04:52:32;15.00;99.90
6407;DHT22;3236;51.022;6.818;2023-05-09T04:54:59;14.80;99.90
6407;DHT22;3236;51.022;6.818;2023-05-09T04:57:26;15.00;99.90
6407;DHT22;3236;51.022;6.818;2023-05-09T04:59:53;15.00;99.90
6407;DHT22;3236;51.022;6.818;2023-05-09T05:02:20;15.00;99.90
6407;DHT22;3236;51.022;6.818;2023-05-09T05:04:49;15.10;99.90
6407;DHT22;3236;51.022;6.818;2023-05-09T05:07:16;15.10;99.90
6407;DHT22;3236;51.022;6.818;2023-05-09T05:09:45;15.20;99.90
6407;DHT22;3236;51.022;6.818;2023-05-09T05:12:12;15.50;99.90
6407;DHT22;3236;51.022;6.818;2023-05-09T05:14:39;15.40;99.90
6407;DHT22;3236;51.022;6.818;2023-05-09T05:17:09;15.40;99.90
6407;DHT22;3236;51.022;6.818;2023-05-09T05:19:36;15.50;99.90
6407;DHT22;3236;51.022;6.818;2023-05-09T05:22:07;15.50;99.90
6407;DHT22;3236;51.022;6.818;2023-05-09T05:24:34;15.50;99.90
6407;DHT22;3236;51.022;6.818;2023-05-09T05:27:03;15.50;99.90
6407;DHT22;3236;51.022;6.818;2023-05-09T05:29:30;15.60;99.90
6407;DHT22;3236;51.022;6.818;2023-05-09T05:31:57;15.70;99.90
6407;DHT22;3236;51.022;6.818;2023-05-09T05:34:24;15.70;99.90
6407;DHT22;3236;51.022;6.818;2023-05-09T05:36:52;15.70;99.90
6407;DHT22;3236;51.022;6.818;2023-05-09T05:39:19;15.90;99.90
6407;DHT22;3236;51.022;6.818;2023-05-09T05:41:46;15.70;99.90
6407;DHT22;3236;51.022;6.818;2023-05-09T05:44:15;15.80;99.90
6407;DHT22;3236;51.022;6.818;2023-05-09T05:46:43;15.80;99.90
6407;DHT22;3236;51.022;6.818;2023-05-09T05:49:10;16.00;99.90
6407;DHT22;3236;51.022;6.818;2023-05-09T05:51:37;16.00;99.90
6407;DHT22;3236;51.022;6.818;2023-05-09T05:54:04;16.20;99.90
6407;DHT22;3236;51.022;6.818;2023-05-09T05:56:32;16.40;99.90
6407;DHT22;3236;51.022;6.818;2023-05-09T05:59:00;16.40;99.90
6407;DHT22;3236;51.022;6.818;2023-05-09T06:01:28;16.30;99.90
6407;DHT22;3236;51.022;6.818;2023-05-09T06:03:55;16.30;99.90
6407;DHT22;3236;51.022;6.818;2023-05-09T06:06:22;16.80;99.90
6407;DHT22;3236;51.022;6.818;2023-05-09T06:08:50;16.60;99.90
6407;DHT22;3236;51.022;6.818;2023-05-09T06:11:19;16.60;99.90
6407;DHT22;3236;51.022;6.818;2023-05-09T06:13:46;16.70;99.90
6407;DHT22;3236;51.022;6.818;2023-05-09T06:16:13;16.90;99.90
6407;DHT22;3236;51.022;6.818;2023-05-09T06:18:42;16.80;99.90
6407;DHT22;3236;51.022;6.818;2023-05-09T06:21:09;17.70;99.90
6407;DHT22;3236;51.022;6.818;2023-05-09T06:23:36;17.10;99.90
6407;DHT22;3236;51.022;6.818;2023-05-09T06:26:03;15.40;99.90
6407;DHT22;3236;51.022;6.818;2023-05-09T06:28:30;17.10;99.90
6407;DHT22;3236;51.022;6.818;2023-05-09T06:33:28;17.30;99.90
6407;DHT22;3236;51.022;6.818;2023-05-09T06:35:58;17.30;99.90
6407;DHT22;3236;51.022;6.818;2023-05-09T06:38:25;17.40;99.90
6407;DHT22;3236;51.022;6.818;2023-05-09T06:40:52;17.50;99.90
6407;DHT22;3236;51.022;6.818;2023-05-09T06:43:19;17.60;99.90
6407;DHT22;3236;51.022;6.818;2023-05-09T06:45:46;17.40;99.90
6407;DHT22;3236;51.022;6.818;2023-05-09T06:48:13;17.60;99.90
6407;DHT22;3236;51.022;6.818;2023-05-09T06:50:40;17.80;99.90
6407;DHT22;3236;51.022;6.818;2023-05-09T06:53:09;17.90;99.90
6407;DHT22;3236;51.022;6.818;2023-05-09T06:55:36;17.90;99.90
6407;DHT22;3236;51.022;6.818;2023-05-09T06:58:03;18.00;99.90
6407;DHT22;3236;51.022;6.818;2023-05-09T07:00:36;18.20;99.90
6407;DHT22;3236;51.022;6.818;2023-05-09T07:03:06;18.10;99.90
6407;DHT22;3236;51.022;6.818;2023-05-09T07:05:33;18.40;99.90
6407;DHT22;3236;51.022;6.818;2023-05-09T07:08:04;18.20;99.90
6407;DHT22;3236;51.022;6.818;2023-05-09T07:13:00;18.70;99.90
6407;DHT22;3236;51.022;6.818;2023-05-09T07:15:27;18.80;99.90
6407;DHT22;3236;51.022;6.818;2023-05-09T07:17:54;19.00;99.90
6407;DHT22;3236;51.022;6.818;2023-05-09T07:22:48;18.70;99.90
6407;DHT22;3236;51.022;6.818;2023-05-09T07:25:15;18.80;99.90
6407;DHT22;3236;51.022;6.818;2023-05-09T07:27:43;18.60;99.90
6407;DHT22;3236;51.022;6.818;2023-05-09T07:30:12;18.50;99.90
6407;DHT22;3236;51.022;6.818;2023-05-09T07:32:39;18.50;99.90
6407;DHT22;3236;51.022;6.818;2023-05-09T07:37:34;18.50;99.90
6407;DHT22;3236;51.022;6.818;2023-05-09T07:40:01;18.40;99.90
6407;DHT22;3236;51.022;6.818;2023-05-09T07:42:30;18.50;99.90
6407;DHT22;3236;51.022;6.818;2023-05-09T07:45:03;19.00;99.90
6407;DHT22;3236;51.022;6.818;2023-05-09T07:47:30;18.80;99.90
6407;DHT22;3236;51.022;6.818;2023-05-09T07:50:00;18.80;99.90
6407;DHT22;3236;51.022;6.818;2023-05-09T07:52:28;18.90;99.90
6407;DHT22;3236;51.022;6.818;2023-05-09T07:54:55;19.00;99.90
6407;DHT22;3236;51.022;6.818;2023-05-09T07:57:22;18.90;99.90
6407;DHT22;3236;51.022;6.818;2023-05-09T07:59:52;19.20;99.90
6407;DHT22;3236;51.022;6.818;2023-05-09T08:02:20;19.00;99.90
6407;DHT22;3236;51.022;6.818;2023-05-09T08:04:48;19.00;99.90
6407;DHT22;3236;51.022;6.818;2023-05-09T08:07:15;19.10;99.90
6407;DHT22;3236;51.022;6.818;2023-05-09T08:09:42;19.10;99.90
6407;DHT22;3236;51.022;6.818;2023-05-09T08:12:09;18.90;99.90
6407;DHT22;3236;51.022;6.818;2023-05-09T08:14:36;19.30;99.90
6407;DHT22;3236;51.022;6.818;2023-05-09T08:17:03;19.10;99.90
6407;DHT22;3236;51.022;6.818;2023-05-09T08:24:26;19.60;99.90
6407;DHT22;3236;51.022;6.818;2023-05-09T08:26:54;19.70;99.90
6407;DHT22;3236;51.022;6.818;2023-05-09T08:29:21;19.40;99.90
6407;DHT22;3236;51.022;6.818;2023-05-09T08:31:48;19.50;99.90
6407;DHT22;3236;51.022;6.818;2023-05-09T08:34:16;19.80;99.90
6407;DHT22;3236;51.022;6.818;2023-05-09T08:36:45;19.80;99.90
6407;DHT22;3236;51.022;6.818;2023-05-09T08:41:39;19.40;99.90
6407;DHT22;3236;51.022;6.818;2023-05-09T08:44:09;19.70;99.90
6407;DHT22;3236;51.022;6.818;2023-05-09T08:49:06;20.00;99.90
6407;DHT22;3236;51.022;6.818;2023-05-09T08:51:34;19.90;99.90
6407;DHT22;3236;51.022;6.818;2023-05-09T08:54:03;20.10;99.90
6407;DHT22;3236;51.022;6.818;2023-05-09T08:56:30;20.20;99.90
6407;DHT22;3236;51.022;6.818;2023-05-09T08:58:57;20.60;99.90
6407;DHT22;3236;51.022;6.818;2023-05-09T09:01:28;21.10;99.90
6407;DHT22;3236;51.022;6.818;2023-05-09T09:03:55;20.80;99.90
6407;DHT22;3236;51.022;6.818;2023-05-09T09:08:51;20.50;99.90
6407;DHT22;3236;51.022;6.818;2023-05-09T09:11:25;20.30;99.90
6407;DHT22;3236;51.022;6.818;2023-05-09T09:13:53;20.30;99.90
6407;DHT22;3236;51.022;6.818;2023-05-09T09:16:22;20.40;99.90
6407;DHT22;3236;51.022;6.818;2023-05-09T09:18:51;20.20;99.90
6407;DHT22;3236;51.022;6.818;2023-05-09T09:21:20;20.10;99.90
6407;DHT22;3236;51.022;6.818;2023-05-09T09:23:49;20.30;99.90
6407;DHT22;3236;51.022;6.818;2023-05-09T09:26:16;20.50;99.90
6407;DHT22;3236;51.022;6.818;2023-05-09T09:28:44;20.30;99.90
6407;DHT22;3236;51.022;6.818;2023-05-09T09:31:21;20.40;99.90
6407;DHT22;3236;51.022;6.818;2023-05-09T09:33:48;20.30;99.90
6407;DHT22;3236;51.022;6.818;2023-05-09T09:36:16;20.20;99.90
6407;DHT22;3236;51.022;6.818;2023-05-09T09:38:55;20.10;99.90
6407;DHT22;3236;51.022;6.818;2023-05-09T09:41:29;20.40;99.90
6407;DHT22;3236;51.022;6.818;2023-05-09T09:43:58;20.60;99.90
6407;DHT22;3236;51.022;6.818;2023-05-09T09:46:40;20.50;99.90
6407;DHT22;3236;51.022;6.818;2023-05-09T09:49:08;20.40;99.90
6407;DHT22;3236;51.022;6.818;2023-05-09T09:51:35;20.50;99.90
6407;DHT22;3236;51.022;6.818;2023-05-09T09:54:02;20.90;99.90
6407;DHT22;3236;51.022;6.818;2023-05-09T09:56:41;20.90;99.90
6407;DHT22;3236;51.022;6.818;2023-05-09T09:59:12;21.70;99.90
6407;DHT22;3236;51.022;6.818;2023-05-09T10:01:58;21.70;99.90
6407;DHT22;3236;51.022;6.818;2023-05-09T10:04:28;21.60;99.90
6407;DHT22;3236;51.022;6.818;2023-05-09T10:06:57;21.10;99.90
6407;DHT22;3236;51.022;6.818;2023-05-09T10:09:26;21.50;99.90
6407;DHT22;3236;51.022;6.818;2023-05-09T10:11:55;21.40;99.90
6407;DHT22;3236;51.022;6.818;2023-05-09T10:14:25;21.20;99.90
6407;DHT22;3236;51.022;6.818;2023-05-09T10:16:54;21.70;99.90
6407;DHT22;3236;51.022;6.818;2023-05-09T10:19:23;21.50;99.90
6407;DHT22;3236;51.022;6.818;2023-05-09T10:21:52;21.70;99.90
6407;DHT22;3236;51.022;6.818;2023-05-09T10:24:28;22.20;99.90
6407;DHT22;3236;51.022;6.818;2023-05-09T10:27:02;21.70;99.90
6407;DHT22;3236;51.022;6.818;2023-05-09T10:29:37;21.60;99.90
6407;DHT22;3236;51.022;6.818;2023-05-09T10:32:16;21.20;99.90
6407;DHT22;3236;51.022;6.818;2023-05-09T10:34:47;21.50;99.90
6407;DHT22;3236;51.022;6.818;2023-05-09T10:37:15;22.20;99.90
6407;DHT22;3236;51.022;6.818;2023-05-09T10:39:43;22.10;99.90
6407;DHT22;3236;51.022;6.818;2023-05-09T10:42:12;21.70;99.90
6407;DHT22;3236;51.022;6.818;2023-05-09T10:44:41;21.80;99.90
6407;DHT22;3236;51.022;6.818;2023-05-09T10:47:08;22.50;99.90
6407;DHT22;3236;51.022;6.818;2023-05-09T10:49:42;22.90;99.90
6407;DHT22;3236;51.022;6.818;2023-05-09T10:52:10;23.20;99.90
6407;DHT22;3236;51.022;6.818;2023-05-09T10:54:38;23.00;99.90
6407;DHT22;3236;51.022;6.818;2023-05-09T10:57:08;24.00;99.90
6407;DHT22;3236;51.022;6.818;2023-05-09T10:59:36;23.40;99.90
6407;DHT22;3236;51.022;6.818;2023-05-09T11:02:11;23.30;99.90
6407;DHT22;3236;51.022;6.818;2023-05-09T11:04:39;24.00;99.90
6407;DHT22;3236;51.022;6.818;2023-05-09T11:07:22;23.50;99.90
6407;DHT22;3236;51.022;6.818;2023-05-09T11:09:50;23.40;99.90
6407;DHT22;3236;51.022;6.818;2023-05-09T11:12:19;23.40;99.90
6407;DHT22;3236;51.022;6.818;2023-05-09T11:14:47;22.90;99.90
6407;DHT22;3236;51.022;6.818;2023-05-09T11:17:30;22.50;99.90
6407;DHT22;3236;51.022;6.818;2023-05-09T11:19:59;21.60;99.90
6407;DHT22;3236;51.022;6.818;2023-05-09T11:22:28;22.30;99.90
6407;DHT22;3236;51.022;6.818;2023-05-09T11:25:02;21.60;99.90
6407;DHT22;3236;51.022;6.818;2023-05-09T11:27:37;21.70;99.90
6407;DHT22;3236;51.022;6.818;2023-05-09T11:30:06;21.90;99.90
6407;DHT22;3236;51.022;6.818;2023-05-09T11:32:41;22.50;99.90
6407;DHT22;3236;51.022;6.818;2023-05-09T11:35:13;22.50;99.90
6407;DHT22;3236;51.022;6.818;2023-05-09T11:37:46;23.00;99.90
6407;DHT22;3236;51.022;6.818;2023-05-09T11:40:14;22.30;99.90
6407;DHT22;3236;51.022;6.818;2023-05-09T11:42:43;21.80;99.90
6407;DHT22;3236;51.022;6.818;2023-05-09T11:45:11;21.90;99.90
6407;DHT22;3236;51.022;6.818;2023-05-09T11:47:40;22.40;99.90
6407;DHT22;3236;51.022;6.818;2023-05-09T11:50:11;22.30;99.90
6407;DHT22;3236;51.022;6.818;2023-05-09T11:52:39;22.20;99.90
6407;DHT22;3236;51.022;6.818;2023-05-09T11:55:08;22.30;99.90
6407;DHT22;3236;51.022;6.818;2023-05-09T12:00:08;22.20;99.90
6407;DHT22;3236;51.022;6.818;2023-05-09T12:07:36;22.80;99.90
6407;DHT22;3236;51.022;6.818;2023-05-09T12:10:08;22.50;99.90
6407;DHT22;3236;51.022;6.818;2023-05-09T12:12:40;22.30;99.90
6407;DHT22;3236;51.022;6.818;2023-05-09T12:15:09;22.30;99.90
6407;DHT22;3236;51.022;6.818;2023-05-09T12:17:38;22.50;99.90
6407;DHT22;3236;51.022;6.818;2023-05-09T12:20:08;22.50;99.90
6407;DHT22;3236;51.022;6.818;2023-05-09T12:22:36;22.30;99.90
6407;DHT22;3236;51.022;6.818;2023-05-09T12:25:06;22.30;99.90
6407;DHT22;3236;51.022;6.818;2023-05-09T12:27:35;22.30;99.90
6407;DHT22;3236;51.022;6.818;2023-05-09T12:30:04;22.80;99.90
6407;DHT22;3236;51.022;6.818;2023-05-09T12:32:37;22.50;99.90
6407;DHT22;3236;51.022;6.818;2023-05-09T12:35:09;22.20;99.90
6407;DHT22;3236;51.022;6.818;2023-05-09T12:37:36;22.00;99.90
6407;DHT22;3236;51.022;6.818;2023-05-09T12:40:05;21.80;99.90
6407;DHT22;3236;51.022;6.818;2023-05-09T12:42:33;22.20;99.90
6407;DHT22;3236;51.022;6.818;2023-05-09T12:45:01;21.90;99.90
6407;DHT22;3236;51.022;6.818;2023-05-09T12:47:29;21.80;99.90
6407;DHT22;3236;51.022;6.818;2023-05-09T12:50:02;21.90;99.90
6407;DHT22;3236;51.022;6.818;2023-05-09T12:52:34;22.10;99.90
6407;DHT22;3236;51.022;6.818;2023-05-09T12:55:05;21.90;99.90
6407;DHT22;3236;51.022;6.818;2023-05-09T12:57:33;22.00;99.90
6407;DHT22;3236;51.022;6.818;2023-05-09T13:02:33;21.80;99.90
6407;DHT22;3236;51.022;6.818;2023-05-09T13:05:05;21.90;99.90
6407;DHT22;3236;51.022;6.818;2023-05-09T13:07:39;21.60;99.90
6407;DHT22;3236;51.022;6.818;2023-05-09T13:10:10;21.70;99.90
6407;DHT22;3236;51.022;6.818;2023-05-09T13:12:38;21.60;99.90
6407;DHT22;3236;51.022;6.818;2023-05-09T13:15:11;21.50;99.90
6407;DHT22;3236;51.022;6.818;2023-05-09T13:17:39;21.40;99.90
6407;DHT22;3236;51.022;6.818;2023-05-09T13:20:07;21.60;99.90
6407;DHT22;3236;51.022;6.818;2023-05-09T13:22:39;21.40;99.90
6407;DHT22;3236;51.022;6.818;2023-05-09T13:25:07;21.50;99.90
6407;DHT22;3236;51.022;6.818;2023-05-09T13:27:34;21.60;99.90
6407;DHT22;3236;51.022;6.818;2023-05-09T13:30:02;21.50;99.90
6407;DHT22;3236;51.022;6.818;2023-05-09T13:32:32;21.70;99.90
6407;DHT22;3236;51.022;6.818;2023-05-09T13:35:00;21.60;99.90
6407;DHT22;3236;51.022;6.818;2023-05-09T13:37:33;21.60;99.90
6407;DHT22;3236;51.022;6.818;2023-05-09T13:40:02;21.70;99.90
6407;DHT22;3236;51.022;6.818;2023-05-09T13:42:29;21.60;99.90
6407;DHT22;3236;51.022;6.818;2023-05-09T13:44:56;21.50;99.90
6407;DHT22;3236;51.022;6.818;2023-05-09T13:47:25;21.60;99.90
6407;DHT22;3236;51.022;6.818;2023-05-09T13:49:52;21.70;99.90
6407;DHT22;3236;51.022;6.818;2023-05-09T13:52:22;21.30;99.90
6407;DHT22;3236;51.022;6.818;2023-05-09T13:57:18;20.70;99.90
6407;DHT22;3236;51.022;6.818;2023-05-09T13:59:45;20.50;99.90
6407;DHT22;3236;51.022;6.818;2023-05-09T14:02:12;19.90;99.90
6407;DHT22;3236;51.022;6.818;2023-05-09T14:04:40;19.70;99.90
6407;DHT22;3236;51.022;6.818;2023-05-09T14:07:10;20.00;99.90
6407;DHT22;3236;51.022;6.818;2023-05-09T14:09:39;19.60;99.90
6407;DHT22;3236;51.022;6.818;2023-05-09T14:12:07;19.30;99.90
6407;DHT22;3236;51.022;6.818;2023-05-09T14:14:35;19.10;99.90
6407;DHT22;3236;51.022;6.818;2023-05-09T14:17:02;18.80;99.90
6407;DHT22;3236;51.022;6.818;2023-05-09T14:19:29;18.80;99.90
6407;DHT22;3236;51.022;6.818;2023-05-09T14:21:56;18.60;99.90
6407;DHT22;3236;51.022;6.818;2023-05-09T14:24:23;18.30;99.90
6407;DHT22;3236;51.022;6.818;2023-05-09T14:26:51;17.90;99.90
6407;DHT22;3236;51.022;6.818;2023-05-09T14:29:18;17.60;99.90
6407;DHT22;3236;51.022;6.818;2023-05-09T14:31:46;17.10;99.90
6407;DHT22;3236;51.022;6.818;2023-05-09T14:34:14;17.00;99.90
6407;DHT22;3236;51.022;6.818;2023-05-09T14:36:41;16.70;99.90
6407;DHT22;3236;51.022;6.818;2023-05-09T14:39:08;16.70;99.90
6407;DHT22;3236;51.022;6.818;2023-05-09T14:41:36;16.60;99.90
6407;DHT22;3236;51.022;6.818;2023-05-09T14:44:03;16.60;99.90
6407;DHT22;3236;51.022;6.818;2023-05-09T14:46:30;16.70;99.90
6407;DHT22;3236;51.022;6.818;2023-05-09T14:49:00;16.80;99.90
6407;DHT22;3236;51.022;6.818;2023-05-09T14:51:29;16.80;99.90
6407;DHT22;3236;51.022;6.818;2023-05-09T14:53:57;17.20;99.90
6407;DHT22;3236;51.022;6.818;2023-05-09T14:56:25;16.50;99.90
6407;DHT22;3236;51.022;6.818;2023-05-09T14:58:52;16.50;99.90
6407;DHT22;3236;51.022;6.818;2023-05-09T15:03:46;17.10;99.90
6407;DHT22;3236;51.022;6.818;2023-05-09T15:06:16;17.00;99.90
6407;DHT22;3236;51.022;6.818;2023-05-09T15:08:43;17.00;99.90
6407;DHT22;3236;51.022;6.818;2023-05-09T15:11:10;17.00;99.90
6407;DHT22;3236;51.022;6.818;2023-05-09T15:13:37;17.00;99.90
6407;DHT22;3236;51.022;6.818;2023-05-09T15:16:04;17.00;99.90
6407;DHT22;3236;51.022;6.818;2023-05-09T15:18:33;17.00;99.90
6407;DHT22;3236;51.022;6.818;2023-05-09T15:21:00;16.90;99.90
6407;DHT22;3236;51.022;6.818;2023-05-09T15:23:29;17.20;99.90
6407;DHT22;3236;51.022;6.818;2023-05-09T15:25:56;17.10;99.90
6407;DHT22;3236;51.022;6.818;2023-05-09T15:28:23;17.30;99.90
6407;DHT22;3236;51.022;6.818;2023-05-09T15:30:50;17.40;99.90
6407;DHT22;3236;51.022;6.818;2023-05-09T15:33:17;17.20;99.90
6407;DHT22;3236;51.022;6.818;2023-05-09T15:35:44;16.90;99.90
6407;DHT22;3236;51.022;6.818;2023-05-09T15:38:11;17.40;99.90
6407;DHT22;3236;51.022;6.818;2023-05-09T15:43:09;17.10;99.90
6407;DHT22;3236;51.022;6.818;2023-05-09T15:45:37;16.90;99.90
6407;DHT22;3236;51.022;6.818;2023-05-09T15:48:09;16.40;99.90
6407;DHT22;3236;51.022;6.818;2023-05-09T15:50:36;16.90;99.90
6407;DHT22;3236;51.022;6.818;2023-05-09T15:53:04;16.80;99.90
6407;DHT22;3236;51.022;6.818;2023-05-09T15:55:31;16.60;99.90
6407;DHT22;3236;51.022;6.818;2023-05-09T15:58:00;16.80;99.90
6407;DHT22;3236;51.022;6.818;2023-05-09T16:00:29;16.70;99.90
6407;DHT22;3236;51.022;6.818;2023-05-09T16:02:57;16.80;99.90
6407;DHT22;3236;51.022;6.818;2023-05-09T16:07:52;16.80;99.90
6407;DHT22;3236;51.022;6.818;2023-05-09T16:12:46;16.90;99.90
6407;DHT22;3236;51.022;6.818;2023-05-09T16:15:14;17.00;99.90
6407;DHT22;3236;51.022;6.818;2023-05-09T16:17:41;16.90;99.90
6407;DHT22;3236;51.022;6.818;2023-05-09T16:20:12;17.00;99.90
6407;DHT22;3236;51.022;6.818;2023-05-09T16:22:40;17.10;99.90
6407;DHT22;3236;51.022;6.818;2023-05-09T16:25:07;16.70;99.90
6407;DHT22;3236;51.022;6.818;2023-05-09T16:27:37;16.90;99.90
6407;DHT22;3236;51.022;6.818;2023-05-09T16:30:05;16.90;99.90
6407;DHT22;3236;51.022;6.818;2023-05-09T16:32:34;16.80;99.90
6407;DHT22;3236;51.022;6.818;2023-05-09T16:35:01;16.90;99.90
6407;DHT22;3236;51.022;6.818;2023-05-09T16:37:28;16.80;99.90
6407;DHT22;3236;51.022;6.818;2023-05-09T16:39:55;16.80;99.90
6407;DHT22;3236;51.022;6.818;2023-05-09T16:42:24;17.30;99.90
6407;DHT22;3236;51.022;6.818;2023-05-09T16:47:20;16.90;99.90
6407;DHT22;3236;51.022;6.818;2023-05-09T16:49:49;16.90;99.90
6407;DHT22;3236;51.022;6.818;2023-05-09T16:52:16;16.70;99.90
6407;DHT22;3236;51.022;6.818;2023-05-09T16:54:43;17.10;99.90
6407;DHT22;3236;51.022;6.818;2023-05-09T16:57:13;16.80;99.90
6407;DHT22;3236;51.022;6.818;2023-05-09T16:59:40;16.80;99.90
6407;DHT22;3236;51.022;6.818;2023-05-09T17:02:08;16.60;99.90
6407;DHT22;3236;51.022;6.818;2023-05-09T17:04:38;16.60;99.90
6407;DHT22;3236;51.022;6.818;2023-05-09T17:07:06;16.80;99.90
6407;DHT22;3236;51.022;6.818;2023-05-09T17:09:33;16.80;99.90
6407;DHT22;3236;51.022;6.818;2023-05-09T17:12:00;16.70;99.90
6407;DHT22;3236;51.022;6.818;2023-05-09T17:14:28;16.30;99.90
6407;DHT22;3236;51.022;6.818;2023-05-09T17:16:55;16.00;99.90
6407;DHT22;3236;51.022;6.818;2023-05-09T17:19:22;15.70;99.90
6407;DHT22;3236;51.022;6.818;2023-05-09T17:21:49;15.60;99.90
6407;DHT22;3236;51.022;6.818;2023-05-09T17:24:18;15.80;99.90
6407;DHT22;3236;51.022;6.818;2023-05-09T17:26:47;16.00;99.90
6407;DHT22;3236;51.022;6.818;2023-05-09T17:29:15;15.70;99.90